Airfield :
LOGIN :

Register | Disclaimer

   EN    FR    IT 

 










Legend :    VFR   Marginal VFR   IFR   Intensive IFR   Very Intensive IFR
Visi :
Ceiling :
>= 8 km
>= 3000ft
5 to 8 km
1000 to 3000 ft
1500m to 5 km
500 to 1000 ft
800 to 1500m
200 to 500 ft
< 800m
< 200 ft
Symbols :   Thunderstorms  Fog  Heavy snow  Heavy precipitations  Wind > 20 kt
SIGMETs :     Misc.  Thunderstorms  Icing  Turbulence  Mountain Waves  Volcanic Ashes






- Airport Elevation : 782 ft
- IATA code : BGY


LIME - Orio al Serio International - Bergamo

CURRENT METAR :
  • 231620Z 07005KT 030V100 9999 VCSH FEW025 SCT050 16/12 Q1016 NOSIG

EXPIRED METARs :
  • 231550Z 09007KT 050V120 9999 FEW025 SCT045 16/12 Q1016 NOSIG
  • 231520Z 10007KT 070V130 9999 FEW025 SCT050 16/13 Q1017 NOSIG
  • 231450Z 13009KT 9999 FEW025 SCT050 15/12 Q1017 NOSIG
  • 231420Z 16007KT 9999 -RA FEW030TCU BKN070 15/13 Q1016 NOSIG
  • 231350Z 28007KT 9999 VCSH FEW040 BKN080 17/12 Q1016 NOSIG
  • 231320Z 27005KT 230V290 9999 VCSH FEW040CB BKN080 18/11 Q1015 NOSIG
  • 231250Z 30006KT 9999 -RA FEW040CB SCT050 18/11 Q1015 TEMPO TSRA
  • 231220Z 28011KT 9999 -RA FEW040CB SCT045 18/11 Q1015 TEMPO TSRA
  • 231150Z 29005KT 240V010 9999 FEW040CB SCT045 19/11 Q1016 TEMPO TSRA
  • 231120Z 32004KT 220V020 9999 SCT045 SCT080 19/11 Q1016 NOSIG

TAF TAF LIME
Valid from the 23 at 12:00 until the 24 at 12:00 UTC


231100Z 2312/2412 VRB05KT 9999 SCT020 BKN080
TEMPO 2312/2319 TSRA
TEMPO 2409/2412 TSRA



MET'MAP, your aeronautical weather chart ! - Copyright ORBIFLY December 2007 - Disclaimer

ORBIFLY MET'MAP TEAM :

Programming & Development : Alexandra Zaïnal
Original concept : Baudouin d'Aumeries
Technical & hardware support : Manuel Goepfert
Assistance : Marc-Olivier Méhu




SOURCES & CREDITS :

   NOAA